sensor_id;sensor_type;location;lat;lon;timestamp;temperature;humidity
16974;DHT22;8603;46.944;7.412;2022-11-15T00:00:21;5.90;99.90
16974;DHT22;8603;46.944;7.412;2022-11-15T00:02:46;5.90;99.90
16974;DHT22;8603;46.944;7.412;2022-11-15T00:05:12;5.90;99.90
16974;DHT22;8603;46.944;7.412;2022-11-15T00:07:37;5.90;99.90
16974;DHT22;8603;46.944;7.412;2022-11-15T00:10:03;5.90;99.90
16974;DHT22;8603;46.944;7.412;2022-11-15T00:12:29;5.90;99.90
16974;DHT22;8603;46.944;7.412;2022-11-15T00:14:55;5.90;99.90
16974;DHT22;8603;46.944;7.412;2022-11-15T00:17:20;5.90;99.90
16974;DHT22;8603;46.944;7.412;2022-11-15T00:19:46;5.90;99.90
16974;DHT22;8603;46.944;7.412;2022-11-15T00:22:12;5.90;99.90
16974;DHT22;8603;46.944;7.412;2022-11-15T00:24:37;6.00;99.90
16974;DHT22;8603;46.944;7.412;2022-11-15T00:27:06;6.00;99.90
16974;DHT22;8603;46.944;7.412;2022-11-15T00:29:31;6.10;99.90
16974;DHT22;8603;46.944;7.412;2022-11-15T00:31:57;6.00;99.90
16974;DHT22;8603;46.944;7.412;2022-11-15T00:34:23;6.00;99.90
16974;DHT22;8603;46.944;7.412;2022-11-15T00:36:48;6.00;99.90
16974;DHT22;8603;46.944;7.412;2022-11-15T00:39:14;6.20;99.90
16974;DHT22;8603;46.944;7.412;2022-11-15T00:41:39;6.00;99.90
16974;DHT22;8603;46.944;7.412;2022-11-15T00:44:05;6.00;99.90
16974;DHT22;8603;46.944;7.412;2022-11-15T00:46:30;6.10;99.90
16974;DHT22;8603;46.944;7.412;2022-11-15T00:48:56;6.10;99.90
16974;DHT22;8603;46.944;7.412;2022-11-15T00:51:22;6.10;99.90
16974;DHT22;8603;46.944;7.412;2022-11-15T00:53:48;6.20;99.90
16974;DHT22;8603;46.944;7.412;2022-11-15T00:56:13;6.10;99.90
16974;DHT22;8603;46.944;7.412;2022-11-15T00:58:39;6.20;99.90
16974;DHT22;8603;46.944;7.412;2022-11-15T01:01:12;6.20;99.90
16974;DHT22;8603;46.944;7.412;2022-11-15T01:03:39;6.20;99.90
16974;DHT22;8603;46.944;7.412;2022-11-15T01:06:08;6.20;99.90
16974;DHT22;8603;46.944;7.412;2022-11-15T01:08:40;6.10;99.90
16974;DHT22;8603;46.944;7.412;2022-11-15T01:11:11;6.10;99.90
16974;DHT22;8603;46.944;7.412;2022-11-15T01:13:38;6.10;99.90
16974;DHT22;8603;46.944;7.412;2022-11-15T01:16:16;6.10;99.90
16974;DHT22;8603;46.944;7.412;2022-11-15T01:18:45;6.10;99.90
16974;DHT22;8603;46.944;7.412;2022-11-15T01:21:16;6.20;99.90
16974;DHT22;8603;46.944;7.412;2022-11-15T01:23:42;6.20;99.90
16974;DHT22;8603;46.944;7.412;2022-11-15T01:26:11;6.20;99.90
16974;DHT22;8603;46.944;7.412;2022-11-15T01:28:41;6.30;99.90
16974;DHT22;8603;46.944;7.412;2022-11-15T01:31:19;6.30;99.90
16974;DHT22;8603;46.944;7.412;2022-11-15T01:33:45;6.50;99.90
16974;DHT22;8603;46.944;7.412;2022-11-15T01:36:13;6.40;99.90
16974;DHT22;8603;46.944;7.412;2022-11-15T01:38:40;6.30;99.90
16974;DHT22;8603;46.944;7.412;2022-11-15T01:41:05;6.20;99.90
16974;DHT22;8603;46.944;7.412;2022-11-15T01:43:36;6.30;99.90
16974;DHT22;8603;46.944;7.412;2022-11-15T01:46:22;6.30;99.90
16974;DHT22;8603;46.944;7.412;2022-11-15T01:48:52;6.30;99.90
16974;DHT22;8603;46.944;7.412;2022-11-15T01:51:23;6.30;99.90
16974;DHT22;8603;46.944;7.412;2022-11-15T01:53:55;6.20;99.90
16974;DHT22;8603;46.944;7.412;2022-11-15T01:56:35;6.40;99.90
16974;DHT22;8603;46.944;7.412;2022-11-15T01:59:05;6.30;99.90
16974;DHT22;8603;46.944;7.412;2022-11-15T02:01:33;6.30;99.90
16974;DHT22;8603;46.944;7.412;2022-11-15T02:04:21;6.30;99.90
16974;DHT22;8603;46.944;7.412;2022-11-15T02:06:56;6.30;99.90
16974;DHT22;8603;46.944;7.412;2022-11-15T02:09:22;6.40;99.90
16974;DHT22;8603;46.944;7.412;2022-11-15T02:11:51;6.40;99.90
16974;DHT22;8603;46.944;7.412;2022-11-15T02:14:19;6.30;99.90
16974;DHT22;8603;46.944;7.412;2022-11-15T02:17:01;6.30;99.90
16974;DHT22;8603;46.944;7.412;2022-11-15T02:30:33;6.30;99.90
16974;DHT22;8603;46.944;7.412;2022-11-15T02:41:11;6.30;99.90
16974;DHT22;8603;46.944;7.412;2022-11-15T02:46:53;6.30;99.90
16974;DHT22;8603;46.944;7.412;2022-11-15T02:49:43;6.30;99.90
16974;DHT22;8603;46.944;7.412;2022-11-15T02:52:18;6.30;99.90
16974;DHT22;8603;46.944;7.412;2022-11-15T02:54:54;6.30;99.90
16974;DHT22;8603;46.944;7.412;2022-11-15T03:00:14;6.30;99.90
16974;DHT22;8603;46.944;7.412;2022-11-15T03:03:13;6.30;99.90
16974;DHT22;8603;46.944;7.412;2022-11-15T03:06:06;6.30;99.90
16974;DHT22;8603;46.944;7.412;2022-11-15T03:11:29;6.30;99.90
16974;DHT22;8603;46.944;7.412;2022-11-15T03:14:25;6.30;99.90
16974;DHT22;8603;46.944;7.412;2022-11-15T03:19:38;6.30;99.90
16974;DHT22;8603;46.944;7.412;2022-11-15T03:22:07;6.30;99.90
16974;DHT22;8603;46.944;7.412;2022-11-15T03:24:36;6.30;99.90
16974;DHT22;8603;46.944;7.412;2022-11-15T03:27:06;6.40;99.90
16974;DHT22;8603;46.944;7.412;2022-11-15T03:29:36;6.40;99.90
16974;DHT22;8603;46.944;7.412;2022-11-15T03:32:13;6.40;99.90
16974;DHT22;8603;46.944;7.412;2022-11-15T03:37:14;6.40;99.90
16974;DHT22;8603;46.944;7.412;2022-11-15T03:39:40;6.40;99.90
16974;DHT22;8603;46.944;7.412;2022-11-15T03:42:29;6.30;99.90
16974;DHT22;8603;46.944;7.412;2022-11-15T03:45:19;6.30;99.90
16974;DHT22;8603;46.944;7.412;2022-11-15T03:47:57;6.40;99.90
16974;DHT22;8603;46.944;7.412;2022-11-15T03:50:24;6.40;99.90
16974;DHT22;8603;46.944;7.412;2022-11-15T03:52:50;6.40;99.90
16974;DHT22;8603;46.944;7.412;2022-11-15T03:55:20;6.40;99.90
16974;DHT22;8603;46.944;7.412;2022-11-15T03:57:54;6.40;99.90
16974;DHT22;8603;46.944;7.412;2022-11-15T04:00:22;6.50;99.90
16974;DHT22;8603;46.944;7.412;2022-11-15T04:02:50;6.40;99.90
16974;DHT22;8603;46.944;7.412;2022-11-15T04:05:16;6.40;99.90
16974;DHT22;8603;46.944;7.412;2022-11-15T04:07:47;6.40;99.90
16974;DHT22;8603;46.944;7.412;2022-11-15T04:10:13;6.40;99.90
16974;DHT22;8603;46.944;7.412;2022-11-15T04:12:44;6.40;99.90
16974;DHT22;8603;46.944;7.412;2022-11-15T04:15:14;6.40;99.90
16974;DHT22;8603;46.944;7.412;2022-11-15T04:17:50;6.30;99.90
16974;DHT22;8603;46.944;7.412;2022-11-15T04:23:14;6.40;99.90
16974;DHT22;8603;46.944;7.412;2022-11-15T04:26:01;6.40;99.90
16974;DHT22;8603;46.944;7.412;2022-11-15T04:28:27;6.40;99.90
16974;DHT22;8603;46.944;7.412;2022-11-15T04:30:52;6.40;99.90
16974;DHT22;8603;46.944;7.412;2022-11-15T04:33:18;6.40;99.90
16974;DHT22;8603;46.944;7.412;2022-11-15T04:35:44;6.40;99.90
16974;DHT22;8603;46.944;7.412;2022-11-15T04:38:30;6.50;99.90
16974;DHT22;8603;46.944;7.412;2022-11-15T04:40:55;6.50;99.90
16974;DHT22;8603;46.944;7.412;2022-11-15T04:43:21;6.50;99.90
16974;DHT22;8603;46.944;7.412;2022-11-15T04:45:47;6.40;99.90
16974;DHT22;8603;46.944;7.412;2022-11-15T04:48:12;6.40;99.90
16974;DHT22;8603;46.944;7.412;2022-11-15T04:50:38;6.40;99.90
16974;DHT22;8603;46.944;7.412;2022-11-15T04:53:04;6.40;99.90
16974;DHT22;8603;46.944;7.412;2022-11-15T04:55:32;6.40;99.90
16974;DHT22;8603;46.944;7.412;2022-11-15T04:58:01;6.40;99.90
16974;DHT22;8603;46.944;7.412;2022-11-15T05:00:28;6.40;99.90
16974;DHT22;8603;46.944;7.412;2022-11-15T05:02:55;6.40;99.90
16974;DHT22;8603;46.944;7.412;2022-11-15T05:05:40;6.40;99.90
16974;DHT22;8603;46.944;7.412;2022-11-15T05:08:08;6.40;99.90
16974;DHT22;8603;46.944;7.412;2022-11-15T05:10:34;6.40;99.90
16974;DHT22;8603;46.944;7.412;2022-11-15T05:13:31;6.40;99.90
16974;DHT22;8603;46.944;7.412;2022-11-15T05:16:08;6.40;99.90
16974;DHT22;8603;46.944;7.412;2022-11-15T05:18:38;6.40;99.90
16974;DHT22;8603;46.944;7.412;2022-11-15T05:21:13;6.40;99.90
16974;DHT22;8603;46.944;7.412;2022-11-15T05:23:39;6.40;99.90
16974;DHT22;8603;46.944;7.412;2022-11-15T05:26:08;6.50;99.90
16974;DHT22;8603;46.944;7.412;2022-11-15T05:28:37;6.40;99.90
16974;DHT22;8603;46.944;7.412;2022-11-15T05:31:14;6.40;99.90
16974;DHT22;8603;46.944;7.412;2022-11-15T05:33:46;6.40;99.90
16974;DHT22;8603;46.944;7.412;2022-11-15T05:36:46;6.40;99.90
16974;DHT22;8603;46.944;7.412;2022-11-15T05:53:03;6.40;99.90
16974;DHT22;8603;46.944;7.412;2022-11-15T05:55:37;6.40;99.90
16974;DHT22;8603;46.944;7.412;2022-11-15T06:06:41;6.40;99.90
16974;DHT22;8603;46.944;7.412;2022-11-15T06:09:07;6.50;99.90
16974;DHT22;8603;46.944;7.412;2022-11-15T06:11:32;6.50;99.90
16974;DHT22;8603;46.944;7.412;2022-11-15T06:13:58;6.50;99.90
16974;DHT22;8603;46.944;7.412;2022-11-15T06:16:24;6.50;99.90
16974;DHT22;8603;46.944;7.412;2022-11-15T06:18:52;6.50;99.90
16974;DHT22;8603;46.944;7.412;2022-11-15T06:21:18;6.60;99.90
16974;DHT22;8603;46.944;7.412;2022-11-15T06:23:44;6.60;99.90
16974;DHT22;8603;46.944;7.412;2022-11-15T06:26:20;6.60;99.90
16974;DHT22;8603;46.944;7.412;2022-11-15T06:32:18;6.50;99.90
16974;DHT22;8603;46.944;7.412;2022-11-15T06:34:48;6.60;99.90
16974;DHT22;8603;46.944;7.412;2022-11-15T06:43:43;6.50;99.90
16974;DHT22;8603;46.944;7.412;2022-11-15T06:46:09;6.60;99.90
16974;DHT22;8603;46.944;7.412;2022-11-15T06:48:35;6.60;99.90
16974;DHT22;8603;46.944;7.412;2022-11-15T06:51:04;6.60;99.90
16974;DHT22;8603;46.944;7.412;2022-11-15T06:53:31;6.60;99.90
16974;DHT22;8603;46.944;7.412;2022-11-15T06:56:02;6.60;99.90
16974;DHT22;8603;46.944;7.412;2022-11-15T06:58:28;6.60;99.90
16974;DHT22;8603;46.944;7.412;2022-11-15T07:00:57;6.60;99.90
16974;DHT22;8603;46.944;7.412;2022-11-15T07:03:26;6.80;99.90
16974;DHT22;8603;46.944;7.412;2022-11-15T07:05:53;6.70;99.90
16974;DHT22;8603;46.944;7.412;2022-11-15T07:08:22;6.80;99.90
16974;DHT22;8603;46.944;7.412;2022-11-15T07:10:51;6.80;99.90
16974;DHT22;8603;46.944;7.412;2022-11-15T07:13:17;6.80;99.90
16974;DHT22;8603;46.944;7.412;2022-11-15T07:15:42;7.00;99.90
16974;DHT22;8603;46.944;7.412;2022-11-15T07:18:08;6.90;99.90
16974;DHT22;8603;46.944;7.412;2022-11-15T07:20:34;6.90;99.90
16974;DHT22;8603;46.944;7.412;2022-11-15T07:23:07;7.00;99.90
16974;DHT22;8603;46.944;7.412;2022-11-15T07:25:33;7.00;99.90
16974;DHT22;8603;46.944;7.412;2022-11-15T07:27:59;7.00;99.90
16974;DHT22;8603;46.944;7.412;2022-11-15T07:30:26;7.00;99.90
16974;DHT22;8603;46.944;7.412;2022-11-15T07:32:56;6.90;99.90
16974;DHT22;8603;46.944;7.412;2022-11-15T07:35:23;7.10;99.90
16974;DHT22;8603;46.944;7.412;2022-11-15T07:38:00;7.10;99.90
16974;DHT22;8603;46.944;7.412;2022-11-15T07:40:28;7.20;99.90
16974;DHT22;8603;46.944;7.412;2022-11-15T07:43:05;7.30;99.90
16974;DHT22;8603;46.944;7.412;2022-11-15T07:45:32;7.30;99.90
16974;DHT22;8603;46.944;7.412;2022-11-15T07:48:00;7.40;99.90
16974;DHT22;8603;46.944;7.412;2022-11-15T07:50:26;7.40;99.90
16974;DHT22;8603;46.944;7.412;2022-11-15T07:52:59;7.50;99.90
16974;DHT22;8603;46.944;7.412;2022-11-15T07:55:28;7.50;99.90
16974;DHT22;8603;46.944;7.412;2022-11-15T07:58:05;7.50;99.90
16974;DHT22;8603;46.944;7.412;2022-11-15T08:00:32;7.50;99.90
16974;DHT22;8603;46.944;7.412;2022-11-15T08:03:17;7.50;99.90
16974;DHT22;8603;46.944;7.412;2022-11-15T08:06:12;7.50;99.90
16974;DHT22;8603;46.944;7.412;2022-11-15T08:08:38;7.60;99.90
16974;DHT22;8603;46.944;7.412;2022-11-15T08:11:03;7.70;99.90
16974;DHT22;8603;46.944;7.412;2022-11-15T08:13:29;7.60;99.90
16974;DHT22;8603;46.944;7.412;2022-11-15T08:16:04;7.80;99.90
16974;DHT22;8603;46.944;7.412;2022-11-15T08:18:30;7.80;99.90
16974;DHT22;8603;46.944;7.412;2022-11-15T08:21:05;7.80;99.90
16974;DHT22;8603;46.944;7.412;2022-11-15T08:23:31;7.80;99.90
16974;DHT22;8603;46.944;7.412;2022-11-15T08:26:11;7.80;99.90
16974;DHT22;8603;46.944;7.412;2022-11-15T08:28:37;7.80;99.90
16974;DHT22;8603;46.944;7.412;2022-11-15T08:31:03;7.70;99.90
16974;DHT22;8603;46.944;7.412;2022-11-15T08:33:30;7.70;99.90
16974;DHT22;8603;46.944;7.412;2022-11-15T08:36:00;7.70;99.90
16974;DHT22;8603;46.944;7.412;2022-11-15T08:38:26;7.70;99.90
16974;DHT22;8603;46.944;7.412;2022-11-15T08:41:00;7.70;99.90
16974;DHT22;8603;46.944;7.412;2022-11-15T08:43:26;7.80;99.90
16974;DHT22;8603;46.944;7.412;2022-11-15T08:45:55;7.80;99.90
16974;DHT22;8603;46.944;7.412;2022-11-15T08:48:21;7.80;99.90
16974;DHT22;8603;46.944;7.412;2022-11-15T08:50:47;7.90;99.90
16974;DHT22;8603;46.944;7.412;2022-11-15T08:53:13;7.90;99.90
16974;DHT22;8603;46.944;7.412;2022-11-15T08:55:44;7.90;99.90
16974;DHT22;8603;46.944;7.412;2022-11-15T08:58:33;8.00;99.90
16974;DHT22;8603;46.944;7.412;2022-11-15T09:01:27;8.00;99.90
16974;DHT22;8603;46.944;7.412;2022-11-15T09:03:55;8.00;99.90
16974;DHT22;8603;46.944;7.412;2022-11-15T09:06:21;8.00;99.90
16974;DHT22;8603;46.944;7.412;2022-11-15T09:08:46;8.10;99.90
16974;DHT22;8603;46.944;7.412;2022-11-15T09:11:16;8.20;99.90
16974;DHT22;8603;46.944;7.412;2022-11-15T09:14:20;8.30;99.90
16974;DHT22;8603;46.944;7.412;2022-11-15T09:16:55;8.40;99.90
16974;DHT22;8603;46.944;7.412;2022-11-15T09:19:24;8.40;99.90
16974;DHT22;8603;46.944;7.412;2022-11-15T09:21:50;8.50;99.90
16974;DHT22;8603;46.944;7.412;2022-11-15T09:24:33;8.50;99.90
16974;DHT22;8603;46.944;7.412;2022-11-15T09:27:14;8.50;99.90
16974;DHT22;8603;46.944;7.412;2022-11-15T09:29:45;8.60;99.90
16974;DHT22;8603;46.944;7.412;2022-11-15T09:32:14;8.70;99.90
16974;DHT22;8603;46.944;7.412;2022-11-15T09:34:40;8.70;99.90
16974;DHT22;8603;46.944;7.412;2022-11-15T09:37:05;8.80;99.90
16974;DHT22;8603;46.944;7.412;2022-11-15T09:39:31;8.90;99.90
16974;DHT22;8603;46.944;7.412;2022-11-15T09:45:26;8.80;99.90
16974;DHT22;8603;46.944;7.412;2022-11-15T09:48:17;8.80;99.90
16974;DHT22;8603;46.944;7.412;2022-11-15T09:51:18;9.00;99.90
16974;DHT22;8603;46.944;7.412;2022-11-15T09:54:17;8.90;99.90
16974;DHT22;8603;46.944;7.412;2022-11-15T09:56:50;9.00;99.90
16974;DHT22;8603;46.944;7.412;2022-11-15T10:04:59;9.30;99.90
16974;DHT22;8603;46.944;7.412;2022-11-15T10:10:42;9.30;99.90
16974;DHT22;8603;46.944;7.412;2022-11-15T10:13:18;9.40;99.90
16974;DHT22;8603;46.944;7.412;2022-11-15T10:15:51;9.70;99.90
16974;DHT22;8603;46.944;7.412;2022-11-15T10:22:21;10.00;99.90
16974;DHT22;8603;46.944;7.412;2022-11-15T10:24:50;10.20;99.90
16974;DHT22;8603;46.944;7.412;2022-11-15T10:27:18;10.30;99.90
16974;DHT22;8603;46.944;7.412;2022-11-15T10:29:49;10.40;99.90
16974;DHT22;8603;46.944;7.412;2022-11-15T10:32:21;10.50;99.90
16974;DHT22;8603;46.944;7.412;2022-11-15T10:34:48;10.60;99.90
16974;DHT22;8603;46.944;7.412;2022-11-15T10:37:14;10.60;99.90
16974;DHT22;8603;46.944;7.412;2022-11-15T10:40:12;10.70;99.90
16974;DHT22;8603;46.944;7.412;2022-11-15T10:42:39;10.80;99.90
16974;DHT22;8603;46.944;7.412;2022-11-15T10:45:29;10.70;99.90
16974;DHT22;8603;46.944;7.412;2022-11-15T10:50:44;10.50;99.90
16974;DHT22;8603;46.944;7.412;2022-11-15T10:53:31;10.50;99.90
16974;DHT22;8603;46.944;7.412;2022-11-15T10:56:05;10.70;99.90
16974;DHT22;8603;46.944;7.412;2022-11-15T10:58:56;10.80;99.90
16974;DHT22;8603;46.944;7.412;2022-11-15T11:01:23;10.90;99.90
16974;DHT22;8603;46.944;7.412;2022-11-15T11:04:04;10.90;99.90
16974;DHT22;8603;46.944;7.412;2022-11-15T11:06:31;11.00;99.90
16974;DHT22;8603;46.944;7.412;2022-11-15T11:09:42;11.10;99.90
16974;DHT22;8603;46.944;7.412;2022-11-15T11:12:11;11.30;99.90
16974;DHT22;8603;46.944;7.412;2022-11-15T11:14:38;11.40;99.90
16974;DHT22;8603;46.944;7.412;2022-11-15T11:17:23;11.70;99.90
16974;DHT22;8603;46.944;7.412;2022-11-15T11:20:40;11.70;99.90
16974;DHT22;8603;46.944;7.412;2022-11-15T11:34:41;12.60;99.90
16974;DHT22;8603;46.944;7.412;2022-11-15T11:37:32;12.70;99.90
16974;DHT22;8603;46.944;7.412;2022-11-15T11:42:55;12.50;99.90
16974;DHT22;8603;46.944;7.412;2022-11-15T11:45:44;12.40;99.90
16974;DHT22;8603;46.944;7.412;2022-11-15T11:48:40;12.40;99.90
16974;DHT22;8603;46.944;7.412;2022-11-15T11:53:56;12.50;99.90
16974;DHT22;8603;46.944;7.412;2022-11-15T11:56:29;12.60;99.90
16974;DHT22;8603;46.944;7.412;2022-11-15T12:01:41;12.70;99.90
16974;DHT22;8603;46.944;7.412;2022-11-15T12:04:35;12.70;99.90
16974;DHT22;8603;46.944;7.412;2022-11-15T12:07:08;12.70;99.90
16974;DHT22;8603;46.944;7.412;2022-11-15T12:12:18;12.90;99.90
16974;DHT22;8603;46.944;7.412;2022-11-15T12:15:00;12.70;99.90
16974;DHT22;8603;46.944;7.412;2022-11-15T12:17:29;12.60;99.90
16974;DHT22;8603;46.944;7.412;2022-11-15T12:20:06;12.70;99.90
16974;DHT22;8603;46.944;7.412;2022-11-15T12:22:51;12.80;99.90
16974;DHT22;8603;46.944;7.412;2022-11-15T12:28:07;13.00;99.90
16974;DHT22;8603;46.944;7.412;2022-11-15T12:31:11;12.90;99.90
16974;DHT22;8603;46.944;7.412;2022-11-15T12:33:43;13.00;99.90
16974;DHT22;8603;46.944;7.412;2022-11-15T12:36:30;13.00;99.90
16974;DHT22;8603;46.944;7.412;2022-11-15T12:39:06;13.10;99.90
16974;DHT22;8603;46.944;7.412;2022-11-15T12:41:36;13.00;99.90
16974;DHT22;8603;46.944;7.412;2022-11-15T12:44:02;13.00;99.90
16974;DHT22;8603;46.944;7.412;2022-11-15T12:49:52;12.90;99.90
16974;DHT22;8603;46.944;7.412;2022-11-15T12:52:19;12.70;99.90
16974;DHT22;8603;46.944;7.412;2022-11-15T12:54:52;12.50;99.90
16974;DHT22;8603;46.944;7.412;2022-11-15T12:57:33;12.30;99.90
16974;DHT22;8603;46.944;7.412;2022-11-15T13:03:17;12.20;99.90
16974;DHT22;8603;46.944;7.412;2022-11-15T13:05:56;12.30;99.90
16974;DHT22;8603;46.944;7.412;2022-11-15T13:08:40;12.50;99.90
16974;DHT22;8603;46.944;7.412;2022-11-15T13:14:44;12.60;99.90
16974;DHT22;8603;46.944;7.412;2022-11-15T13:19:48;12.60;99.90
16974;DHT22;8603;46.944;7.412;2022-11-15T13:22:16;12.50;99.90
16974;DHT22;8603;46.944;7.412;2022-11-15T13:25:01;12.60;99.90
16974;DHT22;8603;46.944;7.412;2022-11-15T13:27:28;12.70;99.90
16974;DHT22;8603;46.944;7.412;2022-11-15T13:29:54;12.70;99.90
16974;DHT22;8603;46.944;7.412;2022-11-15T13:32:21;12.70;99.90
16974;DHT22;8603;46.944;7.412;2022-11-15T13:34:49;12.60;99.90
16974;DHT22;8603;46.944;7.412;2022-11-15T13:46:15;12.40;99.90
16974;DHT22;8603;46.944;7.412;2022-11-15T13:48:46;12.10;99.90
16974;DHT22;8603;46.944;7.412;2022-11-15T13:58:21;11.70;99.90
16974;DHT22;8603;46.944;7.412;2022-11-15T14:04:01;11.60;99.90
16974;DHT22;8603;46.944;7.412;2022-11-15T14:06:29;11.50;99.90
16974;DHT22;8603;46.944;7.412;2022-11-15T14:09:00;11.60;99.90
16974;DHT22;8603;46.944;7.412;2022-11-15T14:11:55;11.50;99.90
16974;DHT22;8603;46.944;7.412;2022-11-15T14:14:48;11.60;99.90
16974;DHT22;8603;46.944;7.412;2022-11-15T14:19:56;11.60;99.90
16974;DHT22;8603;46.944;7.412;2022-11-15T14:22:27;11.60;99.90
16974;DHT22;8603;46.944;7.412;2022-11-15T14:25:19;11.60;99.90
16974;DHT22;8603;46.944;7.412;2022-11-15T14:28:30;11.60;99.90
16974;DHT22;8603;46.944;7.412;2022-11-15T14:31:00;11.60;99.90
16974;DHT22;8603;46.944;7.412;2022-11-15T14:33:31;11.60;99.90
16974;DHT22;8603;46.944;7.412;2022-11-15T14:36:05;11.70;99.90
16974;DHT22;8603;46.944;7.412;2022-11-15T14:38:31;11.60;99.90
16974;DHT22;8603;46.944;7.412;2022-11-15T14:40:57;11.50;99.90
16974;DHT22;8603;46.944;7.412;2022-11-15T14:43:24;11.50;99.90
16974;DHT22;8603;46.944;7.412;2022-11-15T14:45:52;11.50;99.90
16974;DHT22;8603;46.944;7.412;2022-11-15T14:48:17;11.50;99.90
16974;DHT22;8603;46.944;7.412;2022-11-15T14:50:43;11.50;99.90
16974;DHT22;8603;46.944;7.412;2022-11-15T14:53:15;11.40;99.90
16974;DHT22;8603;46.944;7.412;2022-11-15T14:55:44;11.30;99.90
16974;DHT22;8603;46.944;7.412;2022-11-15T14:58:19;11.30;99.90
16974;DHT22;8603;46.944;7.412;2022-11-15T15:00:47;11.20;99.90
16974;DHT22;8603;46.944;7.412;2022-11-15T15:03:12;11.20;99.90
16974;DHT22;8603;46.944;7.412;2022-11-15T15:05:43;11.20;99.90
16974;DHT22;8603;46.944;7.412;2022-11-15T15:08:11;11.10;99.90
16974;DHT22;8603;46.944;7.412;2022-11-15T15:10:41;11.10;99.90
16974;DHT22;8603;46.944;7.412;2022-11-15T15:13:20;11.10;99.90
16974;DHT22;8603;46.944;7.412;2022-11-15T15:15:47;10.90;99.90
16974;DHT22;8603;46.944;7.412;2022-11-15T15:18:33;10.90;99.90
16974;DHT22;8603;46.944;7.412;2022-11-15T15:20:59;10.80;99.90
16974;DHT22;8603;46.944;7.412;2022-11-15T15:23:28;10.70;99.90
16974;DHT22;8603;46.944;7.412;2022-11-15T15:25:59;10.70;99.90
16974;DHT22;8603;46.944;7.412;2022-11-15T15:28:25;10.60;99.90
16974;DHT22;8603;46.944;7.412;2022-11-15T15:30:51;10.50;99.90
16974;DHT22;8603;46.944;7.412;2022-11-15T15:33:18;10.40;99.90
16974;DHT22;8603;46.944;7.412;2022-11-15T15:35:43;10.40;99.90
16974;DHT22;8603;46.944;7.412;2022-11-15T15:38:12;10.30;99.90
16974;DHT22;8603;46.944;7.412;2022-11-15T15:40:38;10.20;99.90
16974;DHT22;8603;46.944;7.412;2022-11-15T15:43:04;10.20;99.90
16974;DHT22;8603;46.944;7.412;2022-11-15T15:45:33;10.10;99.90
16974;DHT22;8603;46.944;7.412;2022-11-15T15:48:02;10.20;99.90
16974;DHT22;8603;46.944;7.412;2022-11-15T15:50:29;9.90;99.90
16974;DHT22;8603;46.944;7.412;2022-11-15T15:52:59;10.00;99.90
16974;DHT22;8603;46.944;7.412;2022-11-15T15:55:26;9.90;99.90
16974;DHT22;8603;46.944;7.412;2022-11-15T15:57:55;9.90;99.90
16974;DHT22;8603;46.944;7.412;2022-11-15T16:00:22;9.90;99.90
16974;DHT22;8603;46.944;7.412;2022-11-15T16:02:50;9.90;99.90
16974;DHT22;8603;46.944;7.412;2022-11-15T16:05:16;9.80;99.90
16974;DHT22;8603;46.944;7.412;2022-11-15T16:07:43;9.80;99.90
16974;DHT22;8603;46.944;7.412;2022-11-15T16:13:16;9.80;99.90
16974;DHT22;8603;46.944;7.412;2022-11-15T16:19:24;9.60;99.90
16974;DHT22;8603;46.944;7.412;2022-11-15T16:22:01;9.60;99.90
16974;DHT22;8603;46.944;7.412;2022-11-15T16:24:30;9.50;99.90
16974;DHT22;8603;46.944;7.412;2022-11-15T16:26:58;9.40;99.90
16974;DHT22;8603;46.944;7.412;2022-11-15T16:29:29;9.40;99.90
16974;DHT22;8603;46.944;7.412;2022-11-15T16:32:05;9.40;99.90
16974;DHT22;8603;46.944;7.412;2022-11-15T16:34:50;9.30;99.90
16974;DHT22;8603;46.944;7.412;2022-11-15T16:37:27;9.30;99.90
16974;DHT22;8603;46.944;7.412;2022-11-15T16:40:26;9.20;99.90
16974;DHT22;8603;46.944;7.412;2022-11-15T16:43:14;9.10;99.90
16974;DHT22;8603;46.944;7.412;2022-11-15T16:45:52;9.10;99.90
16974;DHT22;8603;46.944;7.412;2022-11-15T16:48:53;9.10;99.90
16974;DHT22;8603;46.944;7.412;2022-11-15T16:51:36;9.10;99.90
16974;DHT22;8603;46.944;7.412;2022-11-15T16:54:26;9.10;99.90
16974;DHT22;8603;46.944;7.412;2022-11-15T16:57:03;9.10;99.90
16974;DHT22;8603;46.944;7.412;2022-11-15T16:59:40;9.10;99.90
16974;DHT22;8603;46.944;7.412;2022-11-15T17:02:47;8.90;99.90
16974;DHT22;8603;46.944;7.412;2022-11-15T17:08:53;8.80;99.90
16974;DHT22;8603;46.944;7.412;2022-11-15T17:11:31;8.80;99.90
16974;DHT22;8603;46.944;7.412;2022-11-15T17:24:54;8.70;99.90
16974;DHT22;8603;46.944;7.412;2022-11-15T17:28:06;8.70;99.90
16974;DHT22;8603;46.944;7.412;2022-11-15T17:30:42;8.60;99.90
16974;DHT22;8603;46.944;7.412;2022-11-15T17:33:09;8.70;99.90
16974;DHT22;8603;46.944;7.412;2022-11-15T17:39:33;8.70;99.90
16974;DHT22;8603;46.944;7.412;2022-11-15T17:52:39;8.60;99.90
16974;DHT22;8603;46.944;7.412;2022-11-15T17:58:58;8.60;99.90
16974;DHT22;8603;46.944;7.412;2022-11-15T18:08:35;8.60;99.90
16974;DHT22;8603;46.944;7.412;2022-11-15T18:11:36;8.50;99.90
16974;DHT22;8603;46.944;7.412;2022-11-15T18:14:29;8.50;99.90
16974;DHT22;8603;46.944;7.412;2022-11-15T18:27:17;8.50;99.90
16974;DHT22;8603;46.944;7.412;2022-11-15T18:29:52;8.50;99.90
16974;DHT22;8603;46.944;7.412;2022-11-15T18:32:44;8.50;99.90
16974;DHT22;8603;46.944;7.412;2022-11-15T18:38:53;8.60;99.90
16974;DHT22;8603;46.944;7.412;2022-11-15T18:41:23;8.70;99.90
16974;DHT22;8603;46.944;7.412;2022-11-15T18:44:17;8.70;99.90
16974;DHT22;8603;46.944;7.412;2022-11-15T18:47:15;8.70;99.90
16974;DHT22;8603;46.944;7.412;2022-11-15T18:49:40;8.70;99.90
16974;DHT22;8603;46.944;7.412;2022-11-15T18:52:15;8.60;99.90
16974;DHT22;8603;46.944;7.412;2022-11-15T18:57:48;8.70;99.90
16974;DHT22;8603;46.944;7.412;2022-11-15T19:00:14;8.70;99.90
16974;DHT22;8603;46.944;7.412;2022-11-15T19:02:39;8.70;99.90
16974;DHT22;8603;46.944;7.412;2022-11-15T19:05:45;8.70;99.90
16974;DHT22;8603;46.944;7.412;2022-11-15T19:08:10;8.70;99.90
16974;DHT22;8603;46.944;7.412;2022-11-15T19:10:39;8.70;99.90
16974;DHT22;8603;46.944;7.412;2022-11-15T19:13:06;8.60;99.90
16974;DHT22;8603;46.944;7.412;2022-11-15T19:15:40;8.60;99.90
16974;DHT22;8603;46.944;7.412;2022-11-15T19:21:29;8.60;99.90
16974;DHT22;8603;46.944;7.412;2022-11-15T19:23:56;8.60;99.90
16974;DHT22;8603;46.944;7.412;2022-11-15T19:26:23;8.60;99.90
16974;DHT22;8603;46.944;7.412;2022-11-15T19:28:54;8.50;99.90
16974;DHT22;8603;46.944;7.412;2022-11-15T19:31:21;8.50;99.90
16974;DHT22;8603;46.944;7.412;2022-11-15T19:33:48;8.50;99.90
16974;DHT22;8603;46.944;7.412;2022-11-15T19:36:29;8.60;99.90
16974;DHT22;8603;46.944;7.412;2022-11-15T19:39:26;8.50;99.90
16974;DHT22;8603;46.944;7.412;2022-11-15T19:45:37;8.60;99.90
16974;DHT22;8603;46.944;7.412;2022-11-15T19:48:08;8.50;99.90
16974;DHT22;8603;46.944;7.412;2022-11-15T19:50:37;8.50;99.90
16974;DHT22;8603;46.944;7.412;2022-11-15T19:53:18;8.50;99.90
16974;DHT22;8603;46.944;7.412;2022-11-15T19:59:07;8.50;99.90
16974;DHT22;8603;46.944;7.412;2022-11-15T20:01:43;8.40;99.90
16974;DHT22;8603;46.944;7.412;2022-11-15T20:04:12;8.50;99.90
16974;DHT22;8603;46.944;7.412;2022-11-15T20:06:48;8.50;99.90
16974;DHT22;8603;46.944;7.412;2022-11-15T20:12:53;8.50;99.90
16974;DHT22;8603;46.944;7.412;2022-11-15T20:22:31;8.50;99.90
16974;DHT22;8603;46.944;7.412;2022-11-15T20:25:00;8.50;99.90